createdAt,value
2018-09-20T00:02:03.583Z,9.90
2018-09-20T00:04:37.563Z,11.55
2018-09-20T00:07:12.436Z,10.45
2018-09-20T00:09:46.478Z,12.15
2018-09-20T00:12:21.105Z,13.28
2018-09-20T00:14:55.189Z,12.50
2018-09-20T00:17:29.940Z,10.03
2018-09-20T00:20:05.028Z,11.83
2018-09-20T00:22:39.408Z,9.50
2018-09-20T00:25:14.312Z,11.22
2018-09-20T00:27:48.998Z,16.07
2018-09-20T00:30:22.988Z,14.78
2018-09-20T00:32:57.634Z,13.72
2018-09-20T00:35:31.619Z,12.28
2018-09-20T00:38:05.670Z,9.80
2018-09-20T00:40:39.738Z,12.68
2018-09-20T00:43:13.977Z,12.93
2018-09-20T00:45:47.975Z,15.70
2018-09-20T00:48:22.129Z,9.73
2018-09-20T00:50:56.825Z,11.18
2018-09-20T00:53:30.920Z,14.20
2018-09-20T00:56:05.693Z,12.68
2018-09-20T00:58:39.753Z,13.62
2018-09-20T01:01:14.475Z,15.15
2018-09-20T01:03:48.611Z,14.07
2018-09-20T01:06:23.334Z,13.98
2018-09-20T01:08:57.460Z,16.15
2018-09-20T01:11:31.275Z,13.38
2018-09-20T01:14:05.335Z,14.38
2018-09-20T01:16:39.574Z,12.15
2018-09-20T01:19:13.438Z,12.73
2018-09-20T01:21:48.268Z,12.82
2018-09-20T01:24:22.522Z,14.35
2018-09-20T01:26:56.585Z,11.93
2018-09-20T01:29:31.459Z,15.08
2018-09-20T01:32:05.339Z,12.80
2018-09-20T01:34:39.657Z,10.38
2018-09-20T01:37:13.554Z,14.60
2018-09-20T01:39:48.328Z,12.80
2018-09-20T01:42:22.934Z,12.85
2018-09-20T01:44:57.032Z,9.03
2018-09-20T01:47:30.952Z,10.93
2018-09-20T01:50:06.085Z,10.28
2018-09-20T01:52:40.196Z,14.05
2018-09-20T01:55:14.343Z,11.48
2018-09-20T01:57:48.285Z,16.82
2018-09-20T02:00:22.864Z,12.20
2018-09-20T02:02:56.799Z,10.35
2018-09-20T02:05:30.889Z,12.60
2018-09-20T02:08:05.365Z,14.53
2018-09-20T02:10:40.998Z,8.25
2018-09-20T02:13:14.893Z,16.02
2018-09-20T02:15:48.907Z,12.13
2018-09-20T02:18:23.104Z,16.40
2018-09-20T02:20:57.124Z,13.05
2018-09-20T02:23:31.158Z,9.85
2018-09-20T02:26:05.285Z,11.88
2018-09-20T02:28:39.465Z,10.60
2018-09-20T02:31:13.538Z,13.18
2018-09-20T02:33:47.922Z,11.33
2018-09-20T02:36:22.215Z,16.20
2018-09-20T02:38:57.085Z,12.65
2018-09-20T02:41:31.950Z,16.05
2018-09-20T02:44:06.043Z,13.40
2018-09-20T02:46:40.375Z,11.48
2018-09-20T02:49:14.520Z,9.33
2018-09-20T02:51:48.609Z,11.90
2018-09-20T02:54:22.768Z,14.23
2018-09-20T02:56:57.444Z,11.70
2018-09-20T02:59:31.609Z,13.45
2018-09-20T03:02:06.402Z,11.15
2018-09-20T03:04:40.712Z,12.07
2018-09-20T03:07:15.795Z,12.75
2018-09-20T03:09:49.948Z,13.00
2018-09-20T03:12:24.180Z,11.85
2018-09-20T03:14:58.403Z,14.53
2018-09-20T03:17:32.478Z,12.47
2018-09-20T03:20:06.804Z,14.78
2018-09-20T03:22:41.329Z,11.97
2018-09-20T03:25:15.925Z,13.78
2018-09-20T03:27:50.208Z,13.55
2018-09-20T03:30:25.073Z,11.03
2018-09-20T03:32:59.909Z,11.38
2018-09-20T03:35:33.744Z,12.85
2018-09-20T03:38:08.151Z,15.53
2018-09-20T03:40:42.569Z,15.25
2018-09-20T03:43:18.350Z,14.13
2018-09-20T03:45:52.462Z,12.70
2018-09-20T03:48:26.735Z,15.00
2018-09-20T03:51:00.663Z,10.70
2018-09-20T03:53:34.558Z,12.65
2018-09-20T03:56:08.568Z,11.50
2018-09-20T03:58:42.578Z,12.68
2018-09-20T04:01:16.779Z,14.83
2018-09-20T04:03:50.857Z,11.33
2018-09-20T04:06:25.227Z,15.43
2018-09-20T04:08:59.038Z,13.45
2018-09-20T04:11:33.395Z,12.18
2018-09-20T04:14:07.833Z,11.93
2018-09-20T04:16:41.679Z,11.90
2018-09-20T04:19:15.405Z,11.97
2018-09-20T04:21:49.593Z,12.37
2018-09-20T04:24:24.789Z,12.65
2018-09-20T04:26:59.365Z,11.40
2018-09-20T04:29:33.485Z,16.12
2018-09-20T04:32:07.645Z,10.28
2018-09-20T04:34:42.300Z,15.53
2018-09-20T04:37:16.362Z,18.92
2018-09-20T04:39:50.525Z,9.68
2018-09-20T04:42:24.282Z,11.73
2018-09-20T04:44:58.382Z,10.20
2018-09-20T04:47:33.044Z,11.30
2018-09-20T04:50:08.110Z,10.30
2018-09-20T04:52:42.895Z,13.85
2018-09-20T04:55:16.925Z,13.98
2018-09-20T04:57:51.263Z,13.38
2018-09-20T05:00:25.236Z,16.75
2018-09-20T05:02:59.823Z,13.80
2018-09-20T05:05:34.078Z,13.63
2018-09-20T05:08:08.240Z,12.33
2018-09-20T05:10:42.308Z,12.60
2018-09-20T05:13:17.518Z,12.93
2018-09-20T05:15:51.390Z,12.77
2018-09-20T05:18:25.608Z,11.93
2018-09-20T05:21:00.454Z,16.07
2018-09-20T05:23:34.498Z,14.30
2018-09-20T05:26:09.049Z,12.80
2018-09-20T05:28:43.933Z,11.67
2018-09-20T05:31:17.873Z,13.05
2018-09-20T05:33:51.799Z,15.33
2018-09-20T05:36:26.453Z,13.03
2018-09-20T05:39:00.290Z,14.00
2018-09-20T05:41:34.593Z,12.27
2018-09-20T05:44:09.323Z,10.10
2018-09-20T05:46:43.757Z,15.17
2018-09-20T05:49:17.808Z,13.13
2018-09-20T05:51:52.218Z,19.17
2018-09-20T05:54:26.833Z,15.97
2018-09-20T05:57:00.614Z,16.77
2018-09-20T05:59:34.930Z,15.47
2018-09-20T06:02:08.803Z,18.17
2018-09-20T06:04:42.862Z,15.10
2018-09-20T06:07:16.764Z,14.50
2018-09-20T06:09:50.923Z,14.57
2018-09-20T06:12:25.229Z,14.95
2018-09-20T06:14:59.958Z,14.33
2018-09-20T06:17:34.480Z,14.45
2018-09-20T06:20:15.630Z,11.55
2018-09-20T06:22:49.758Z,15.05
2018-09-20T06:25:23.945Z,18.07
2018-09-20T06:27:57.915Z,18.52
2018-09-20T06:30:32.408Z,15.18
2018-09-20T06:33:06.750Z,14.75
2018-09-20T06:35:41.255Z,13.03
2018-09-20T06:38:16.277Z,16.80
2018-09-20T06:40:50.559Z,15.75
2018-09-20T06:43:24.510Z,17.62
2018-09-20T06:45:58.624Z,18.25
2018-09-20T06:48:33.719Z,15.20
2018-09-20T06:51:07.783Z,16.37
2018-09-20T06:53:42.308Z,12.60
2018-09-20T06:56:17.265Z,12.20
2018-09-20T06:58:51.720Z,14.38
2018-09-20T07:01:26.066Z,13.93
2018-09-20T07:04:00.298Z,15.78
2018-09-20T07:06:34.344Z,16.67
2018-09-20T07:09:10.089Z,12.18
2018-09-20T07:11:44.539Z,14.65
2018-09-20T07:14:19.130Z,11.18
2018-09-20T07:16:53.649Z,15.98
2018-09-20T07:19:28.359Z,12.80
2018-09-20T07:22:03.199Z,18.02
2018-09-20T07:24:37.319Z,14.63
2018-09-20T07:27:11.289Z,10.82
2018-09-20T07:29:45.515Z,12.58
2018-09-20T07:32:19.631Z,13.75
2018-09-20T07:34:53.615Z,14.28
2018-09-20T07:37:27.973Z,16.57
2018-09-20T07:40:01.765Z,12.60
2018-09-20T07:42:36.175Z,12.63
2018-09-20T07:45:10.509Z,13.28
2018-09-20T07:47:44.441Z,13.98
2018-09-20T07:50:18.399Z,10.90
2018-09-20T07:52:52.559Z,12.63
2018-09-20T07:55:27.435Z,12.03
2018-09-20T07:58:01.810Z,14.63
2018-09-20T08:00:36.028Z,13.32
2018-09-20T08:03:11.025Z,11.43
2018-09-20T08:05:45.483Z,10.40
2018-09-20T08:08:19.974Z,12.90
2018-09-20T08:10:54.883Z,12.37
2018-09-20T08:13:28.964Z,13.58
2018-09-20T08:16:03.019Z,14.33
2018-09-20T08:18:36.891Z,10.80
2018-09-20T08:21:11.129Z,10.30
2018-09-20T08:23:45.302Z,10.93
2018-09-20T08:26:19.360Z,9.03
2018-09-20T08:28:53.639Z,10.72
2018-09-20T08:31:28.119Z,11.68
2018-09-20T08:34:02.128Z,15.05
2018-09-20T08:36:36.143Z,12.93
2018-09-20T08:39:11.742Z,12.10
2018-09-20T08:41:45.968Z,13.05
2018-09-20T08:44:20.228Z,11.15
2018-09-20T08:46:54.160Z,11.63
2018-09-20T08:49:28.360Z,11.20
2018-09-20T08:52:02.434Z,13.72
2018-09-20T08:54:36.892Z,16.07
2018-09-20T08:57:11.016Z,13.38
2018-09-20T08:59:46.410Z,12.03
2018-09-20T09:02:20.663Z,11.55
2018-09-20T09:04:55.038Z,10.60
2018-09-20T09:07:29.181Z,10.53
2018-09-20T09:10:03.409Z,13.75
2018-09-20T09:12:37.203Z,14.93
2018-09-20T09:15:11.706Z,13.38
2018-09-20T09:17:46.408Z,12.63
2018-09-20T09:20:20.704Z,9.68
2018-09-20T09:22:54.614Z,9.35
2018-09-20T09:25:28.618Z,12.70
2018-09-20T09:28:03.084Z,11.88
2018-09-20T09:30:37.395Z,12.65
2018-09-20T09:33:11.669Z,8.55
2018-09-20T09:35:45.956Z,11.10
2018-09-20T09:38:20.019Z,10.85
2018-09-20T09:40:54.189Z,13.05
2018-09-20T09:43:28.139Z,11.48
2018-09-20T09:46:02.046Z,9.48
2018-09-20T09:48:36.560Z,7.90
2018-09-20T09:51:11.273Z,9.85
2018-09-20T09:53:45.399Z,10.75
2018-09-20T09:56:19.419Z,11.30
2018-09-20T09:58:53.919Z,11.22
2018-09-20T10:01:28.350Z,7.80
2018-09-20T10:04:03.218Z,10.65
2018-09-20T10:06:38.003Z,8.20
2018-09-20T10:09:12.184Z,5.67
2018-09-20T10:11:46.258Z,9.48
2018-09-20T10:14:20.694Z,6.50
2018-09-20T10:16:56.415Z,9.58
2018-09-20T10:19:30.294Z,9.05
2018-09-20T10:22:04.615Z,7.83
2018-09-20T10:24:38.634Z,8.60
2018-09-20T10:27:13.443Z,8.60
2018-09-20T10:29:47.288Z,12.20
2018-09-20T10:32:21.458Z,8.30
2018-09-20T10:34:56.070Z,7.58
2018-09-20T10:37:30.318Z,10.03
2018-09-20T10:40:04.739Z,12.07
2018-09-20T10:42:39.276Z,11.97
2018-09-20T10:45:20.037Z,8.48
2018-09-20T10:47:53.936Z,8.80
2018-09-20T10:50:28.847Z,8.75
2018-09-20T10:53:03.869Z,12.15
2018-09-20T10:55:38.876Z,9.85
2018-09-20T10:58:12.961Z,8.70
2018-09-20T11:00:46.905Z,9.53
2018-09-20T11:03:21.017Z,8.68
2018-09-20T11:05:55.090Z,10.82
2018-09-20T11:08:29.607Z,8.98
2018-09-20T11:11:03.634Z,9.75
2018-09-20T11:13:37.754Z,11.55
2018-09-20T11:16:18.618Z,11.93
2018-09-20T11:18:53.975Z,10.28
2018-09-20T11:21:28.255Z,12.53
2018-09-20T11:24:02.596Z,9.03
2018-09-20T11:26:37.288Z,9.93
2018-09-20T11:29:11.066Z,8.73
2018-09-20T11:31:45.429Z,10.98
2018-09-20T11:34:20.696Z,7.75
2018-09-20T11:36:55.315Z,7.05
2018-09-20T11:39:30.799Z,6.80
2018-09-20T11:42:05.165Z,8.58
2018-09-20T11:44:39.539Z,12.40
2018-09-20T11:47:13.950Z,11.12
2018-09-20T11:49:49.035Z,8.83
2018-09-20T11:52:23.365Z,8.03
2018-09-20T11:54:58.542Z,11.78
2018-09-20T11:57:32.756Z,10.58
2018-09-20T12:00:07.491Z,9.25
2018-09-20T12:02:42.451Z,8.43
2018-09-20T12:05:16.925Z,8.93
2018-09-20T12:07:51.680Z,9.00
2018-09-20T12:10:26.409Z,5.92
2018-09-20T12:13:00.361Z,9.15
2018-09-20T12:15:34.570Z,9.65
2018-09-20T12:18:08.654Z,8.50
2018-09-20T12:20:42.778Z,9.20
2018-09-20T12:23:17.366Z,8.33
2018-09-20T12:25:52.303Z,8.93
2018-09-20T12:28:26.519Z,9.48
2018-09-20T12:31:00.825Z,7.17
2018-09-20T12:33:34.996Z,7.30
2018-09-20T12:36:09.318Z,7.70
2018-09-20T12:38:43.792Z,8.75
2018-09-20T12:41:18.225Z,10.10
2018-09-20T12:43:52.169Z,6.10
2018-09-20T12:46:26.725Z,9.65
2018-09-20T12:49:01.380Z,8.18
2018-09-20T12:51:36.249Z,11.30
2018-09-20T12:54:10.314Z,9.70
2018-09-20T12:56:45.615Z,7.92
2018-09-20T12:59:20.204Z,8.55
2018-09-20T13:01:54.283Z,7.37
2018-09-20T13:04:28.454Z,6.22
2018-09-20T13:07:02.684Z,8.95
2018-09-20T13:09:36.893Z,7.22
2018-09-20T13:12:11.654Z,7.00
2018-09-20T13:14:45.991Z,8.28
2018-09-20T13:17:20.483Z,6.50
2018-09-20T13:19:54.920Z,6.90
2018-09-20T13:22:28.966Z,6.05
2018-09-20T13:25:02.995Z,9.18
2018-09-20T13:27:37.579Z,6.67
2018-09-20T13:30:11.619Z,7.42
2018-09-20T13:32:45.580Z,7.00
2018-09-20T13:35:19.686Z,8.23
2018-09-20T13:37:53.913Z,13.25
2018-09-20T13:40:27.994Z,10.30
2018-09-20T13:43:02.613Z,7.37
2018-09-20T13:45:36.677Z,7.05
2018-09-20T13:48:11.579Z,9.08
2018-09-20T13:50:45.809Z,8.68
2018-09-20T13:53:19.672Z,8.68
2018-09-20T13:55:53.953Z,12.05
2018-09-20T13:58:28.744Z,6.60
2018-09-20T14:01:03.828Z,7.45
2018-09-20T14:03:38.057Z,6.85
2018-09-20T14:06:11.931Z,9.90
2018-09-20T14:08:46.749Z,6.03
2018-09-20T14:11:21.770Z,9.13
2018-09-20T14:13:56.788Z,8.90
2018-09-20T14:16:30.942Z,10.40
2018-09-20T14:19:05.690Z,7.08
2018-09-20T14:21:39.494Z,4.92
2018-09-20T14:24:13.495Z,8.65
2018-09-20T14:26:47.635Z,8.28
2018-09-20T14:29:22.468Z,9.38
2018-09-20T14:31:57.027Z,8.85
2018-09-20T14:34:30.851Z,7.53
2018-09-20T14:37:05.699Z,7.20
2018-09-20T14:39:39.842Z,9.93
2018-09-20T14:42:13.920Z,6.92
2018-09-20T14:44:47.768Z,8.70
2018-09-20T14:47:22.572Z,8.80
2018-09-20T14:49:57.570Z,4.87
2018-09-20T14:52:31.638Z,5.45
2018-09-20T14:55:06.049Z,11.12
2018-09-20T14:57:40.588Z,7.55
2018-09-20T15:00:15.062Z,10.85
2018-09-20T15:02:49.123Z,7.95
2018-09-20T15:05:23.645Z,7.30
2018-09-20T15:07:57.588Z,5.35
2018-09-20T15:10:31.607Z,5.58
2018-09-20T15:13:06.209Z,5.92
2018-09-20T15:15:40.388Z,10.90
2018-09-20T15:18:14.634Z,6.53
2018-09-20T15:20:49.381Z,6.85
2018-09-20T15:23:23.460Z,10.35
2018-09-20T15:25:57.288Z,8.15
2018-09-20T15:28:31.517Z,7.53
2018-09-20T15:31:06.238Z,5.55
2018-09-20T15:33:40.195Z,7.17
2018-09-20T15:36:14.793Z,6.35
2018-09-20T15:38:49.570Z,8.10
2018-09-20T15:41:23.480Z,5.25
2018-09-20T15:43:58.075Z,6.42
2018-09-20T15:46:32.504Z,5.72
2018-09-20T15:49:06.719Z,7.08
2018-09-20T15:51:41.036Z,5.42
2018-09-20T15:54:15.304Z,8.60
2018-09-20T15:56:50.366Z,8.03
2018-09-20T15:59:24.420Z,8.18
2018-09-20T16:01:58.986Z,10.63
2018-09-20T16:04:34.091Z,6.67
2018-09-20T16:07:09.324Z,7.60
2018-09-20T16:09:43.517Z,8.33
2018-09-20T16:12:17.538Z,8.68
2018-09-20T16:14:51.870Z,6.28
2018-09-20T16:17:26.821Z,9.88
2018-09-20T16:20:01.069Z,9.35
2018-09-20T16:22:35.180Z,7.40
2018-09-20T16:25:11.771Z,7.55
2018-09-20T16:27:45.750Z,5.08
2018-09-20T16:30:34.436Z,6.47
2018-09-20T16:33:30.398Z,4.15
2018-09-20T16:36:15.676Z,12.65
2018-09-20T16:38:54.207Z,6.37
2018-09-20T16:41:33.339Z,6.35
2018-09-20T16:44:07.455Z,6.42
2018-09-20T16:46:41.554Z,8.13
2018-09-20T16:49:16.451Z,6.85
2018-09-20T16:51:50.385Z,9.45
2018-09-20T16:54:25.393Z,7.67
2018-09-20T16:56:59.681Z,11.63
2018-09-20T16:59:34.526Z,8.53
2018-09-20T17:02:09.544Z,7.37
2018-09-20T17:04:43.375Z,8.05
2018-09-20T17:07:17.774Z,8.35
2018-09-20T17:09:51.933Z,10.32
2018-09-20T17:12:26.164Z,7.42
2018-09-20T17:15:01.321Z,8.50
2018-09-20T17:17:35.828Z,6.35
2018-09-20T17:20:10.700Z,5.85
2018-09-20T17:22:44.648Z,9.08
2018-09-20T17:25:18.813Z,6.00
2018-09-20T17:27:53.942Z,12.47
2018-09-20T17:30:28.044Z,8.53
2018-09-20T17:33:02.582Z,11.03
2018-09-20T17:35:37.741Z,8.90
2018-09-20T17:38:13.270Z,7.10
2018-09-20T17:40:50.898Z,9.13
2018-09-20T17:43:31.835Z,8.40
2018-09-20T17:46:06.160Z,8.43
2018-09-20T17:48:40.192Z,8.68
2018-09-20T17:51:15.606Z,8.40
2018-09-20T17:53:51.090Z,10.20
2018-09-20T17:56:25.517Z,8.88
2018-09-20T17:59:00.350Z,7.72
2018-09-20T18:01:34.689Z,10.93
2018-09-20T18:04:08.621Z,8.48
2018-09-20T18:06:43.332Z,7.03
2018-09-20T18:09:17.386Z,9.48
2018-09-20T18:11:51.475Z,9.08
2018-09-20T18:14:25.675Z,10.60
2018-09-20T18:16:59.969Z,9.13
2018-09-20T18:19:34.130Z,9.15
2018-09-20T18:22:08.364Z,7.53
2018-09-20T18:24:43.106Z,8.08
2018-09-20T18:27:17.493Z,9.85
2018-09-20T18:29:51.679Z,8.85
2018-09-20T18:32:25.779Z,7.20
2018-09-20T18:35:00.727Z,8.48
2018-09-20T18:37:36.335Z,9.38
2018-09-20T18:40:10.434Z,10.15
2018-09-20T18:42:45.546Z,11.48
2018-09-20T18:45:19.664Z,8.85
2018-09-20T18:47:54.070Z,11.05
2018-09-20T18:50:29.075Z,9.40
2018-09-20T18:53:03.992Z,8.10
2018-09-20T18:55:38.299Z,7.75
2018-09-20T18:58:13.319Z,6.70
2018-09-20T19:00:47.902Z,8.53
2018-09-20T19:03:22.830Z,9.23
2018-09-20T19:05:56.819Z,6.42
2018-09-20T19:08:31.116Z,9.38
2018-09-20T19:11:05.742Z,6.85
2018-09-20T19:13:40.654Z,7.05
2018-09-20T19:16:14.985Z,8.98
2018-09-20T19:18:49.719Z,11.18
2018-09-20T19:21:24.465Z,8.93
2018-09-20T19:23:58.938Z,8.05
2018-09-20T19:26:33.950Z,12.40
2018-09-20T19:29:08.679Z,9.80
2018-09-20T19:31:43.163Z,10.82
2018-09-20T19:34:18.160Z,9.63
2018-09-20T19:36:52.611Z,7.30
2018-09-20T19:39:57.860Z,9.08
2018-09-20T19:42:33.134Z,10.48
2018-09-20T19:45:07.377Z,9.78
2018-09-20T19:47:42.194Z,10.05
2018-09-20T19:50:17.216Z,8.60
2018-09-20T19:52:51.959Z,10.15
2018-09-20T19:55:26.127Z,7.10
2018-09-20T19:58:00.561Z,10.00
2018-09-20T20:00:34.773Z,6.97
2018-09-20T20:03:09.076Z,8.10
2018-09-20T20:05:43.755Z,8.03
2018-09-20T20:08:18.338Z,7.65
2018-09-20T20:10:53.092Z,7.47
2018-09-20T20:13:27.902Z,9.15
2018-09-20T20:16:02.154Z,6.85
2018-09-20T20:18:36.651Z,8.35
2018-09-20T20:21:10.762Z,8.95
2018-09-20T20:23:45.042Z,8.98
2018-09-20T20:26:19.411Z,7.75
2018-09-20T20:28:53.770Z,5.55
2018-09-20T20:31:28.036Z,8.43
2018-09-20T20:34:02.588Z,7.45
2018-09-20T20:36:36.868Z,8.25
2018-09-20T20:39:11.330Z,10.78
2018-09-20T20:41:45.693Z,8.70
2018-09-20T20:44:20.354Z,8.83
2018-09-20T20:46:55.175Z,13.75
2018-09-20T20:49:30.249Z,8.98
2018-09-20T20:52:04.676Z,8.78
2018-09-20T20:54:39.747Z,7.25
2018-09-20T20:57:14.937Z,8.43
2018-09-20T20:59:49.793Z,9.05
2018-09-20T21:02:24.532Z,9.08
2018-09-20T21:04:58.772Z,8.60
2018-09-20T21:07:33.004Z,11.38
2018-09-20T21:10:07.147Z,10.60
2018-09-20T21:12:41.320Z,10.43
2018-09-20T21:15:15.823Z,9.10
2018-09-20T21:17:50.306Z,11.88
2018-09-20T21:20:25.309Z,10.32
2018-09-20T21:22:59.569Z,8.95
2018-09-20T21:25:34.100Z,8.85
2018-09-20T21:28:08.941Z,8.98
2018-09-20T21:30:43.083Z,7.87
2018-09-20T21:33:17.267Z,9.70
2018-09-20T21:35:51.189Z,9.93
2018-09-20T21:38:25.964Z,7.37
2018-09-20T21:41:00.104Z,7.37
2018-09-20T21:43:34.296Z,5.75
2018-09-20T21:46:08.282Z,8.40
2018-09-20T21:48:42.748Z,6.55
2018-09-20T21:51:17.186Z,7.12
2018-09-20T21:53:51.243Z,8.95
2018-09-20T21:56:25.715Z,7.03
2018-09-20T21:59:00.155Z,8.98
2018-09-20T22:01:39.875Z,10.32
2018-09-20T22:04:14.043Z,7.00
2018-09-20T22:06:48.396Z,10.23
2018-09-20T22:09:23.078Z,10.48
2018-09-20T22:11:57.123Z,6.22
2018-09-20T22:14:31.189Z,8.38
2018-09-20T22:17:05.391Z,8.73
2018-09-20T22:19:39.429Z,7.95
2018-09-20T22:22:15.193Z,5.17
2018-09-20T22:24:50.240Z,9.43
2018-09-20T22:27:24.677Z,11.75
2018-09-20T22:29:58.670Z,7.47
2018-09-20T22:32:33.081Z,8.28
2018-09-20T22:35:07.191Z,8.85
2018-09-20T22:37:42.053Z,8.68
2018-09-20T22:40:16.179Z,6.03
2018-09-20T22:42:51.313Z,10.60
2018-09-20T22:45:25.325Z,10.48
2018-09-20T22:47:59.664Z,6.70
2018-09-20T22:50:34.412Z,9.13
2018-09-20T22:53:09.249Z,12.75
2018-09-20T22:55:44.139Z,6.20
2018-09-20T22:58:19.084Z,6.55
2018-09-20T23:00:53.742Z,6.45
2018-09-20T23:03:27.879Z,7.83
2018-09-20T23:06:01.902Z,7.15
2018-09-20T23:08:36.007Z,4.80
2018-09-20T23:11:11.063Z,6.25
2018-09-20T23:13:45.152Z,6.97
2018-09-20T23:16:19.444Z,7.25
2018-09-20T23:18:53.707Z,6.62
2018-09-20T23:21:27.799Z,7.75
2018-09-20T23:24:01.984Z,10.60
2018-09-20T23:26:35.962Z,7.20
2018-09-20T23:29:10.744Z,9.73
2018-09-20T23:31:45.024Z,5.45
2018-09-20T23:34:20.017Z,6.67
2018-09-20T23:36:54.043Z,10.38
2018-09-20T23:39:29.048Z,10.25
2018-09-20T23:42:03.823Z,6.83
2018-09-20T23:44:37.953Z,8.85
2018-09-20T23:47:12.999Z,5.15
2018-09-20T23:49:46.978Z,5.55
2018-09-20T23:52:21.624Z,10.93
2018-09-20T23:54:55.998Z,5.45
2018-09-20T23:57:30.077Z,4.35
